MOOI WEER BOXTEL

Weerstation in Boxtel

Actuele weerinformatie en voorspellingen


Onweer radar Meer informatie blitzortung!


Regen radar Meer informatie rain snow radar


Meer informatie

Template documentation
and downloads

Weblog Hans on Experience

Profiel Hans Mestrum



Het weer levert geen direct gevaar op.    Er zijn geen waarschuwingen afgegeven.

METAR rapporten vliegvelden

   
EHEH - Eindhoven
Gewijzigd: 25-09-2018 05:25
Nevel, Helder  
Nevel, Helder  
   Wind: ZW 3.7 km/h
Wind: ZW 3.7 km/h
Temperatuur: 2°C
Dauwpunt: 2°C
Vochtigheid: 100%
Barometer: 1038 hPa
Bewolking: Helder
Zicht: 2 km
Bewolking: Helder
EHEH 250325Z AUTO 23002KT 1600 BR NCD 02/02 Q1038 YLO
EHVK - Volkel
Gewijzigd: 25-09-2018 05:25
Helder  
Helder  
   Wind: ZW 5.6 km/h
Wind: ZW 5.6 km/h
Temperatuur: 4°C
Voelt als: 3°C
Dauwpunt: 3°C
Vochtigheid: 93%
Barometer: 1037 hPa
Bewolking: Helder
Zicht: meer dan 10 km
Bewolking: Helder
EHVK 250325Z AUTO 23003KT 9999 NCD 04/03 Q1037 BLU
EBAW - Antwerpen
Gewijzigd: 25-09-2018 05:20
Helder  
Helder  
   Wind: varieert 3.7 km/h
Wind: varieert 3.7 km/h
Temperatuur: 5°C
Dauwpunt: 4°C
Vochtigheid: 93%
Barometer: 1038 hPa
Zicht: meer dan 10 km
Bewolking: Helder
EBAW 250320Z AUTO VRB02KT CAVOK 05/04 Q1038
EHBK - Maastricht
Gewijzigd: 25-09-2018 05:25
Helder  
Helder  
   Wind: Zuiden 7.4 km/h
Wind: Zuiden 7.4 km/h
Temperatuur: 4°C
Voelt als: 2°C
Dauwpunt: 4°C
Vochtigheid: 100%
Barometer: 1037 hPa
Bewolking: Helder
Zicht: meer dan 10 km
Bewolking: Helder
EHBK 250325Z AUTO 19004KT 9999 NCD 04/04 Q1037
ELLX - Luxemburg
Gewijzigd: 25-09-2018 05:20
Helder  
Helder  
   Wind: NNO 16.7 km/h
Wind: NNO 16.7 km/h
Temperatuur: 6°C
Voelt als: 3°C
Dauwpunt: 4°C
Vochtigheid: 87%
Barometer: 1036 hPa
Zicht: meer dan 10 km
Bewolking: Helder
ELLX 250320Z 03009KT CAVOK 06/04 Q1036 NOSIG
 

Script ontwikkeld door  Saratoga-weather.org Aangepast voor de template door  Weerstation Leuven

U vindt ons ook hier:

Het Weer Aktueel

UK Metoffice

European Weather Network

Weather Underground

AWEKAS

Citizen Weather Observer Program (CWOP)

HAMweather, WeatherForYou, PWS Weather

Apparatuur in gebruik:

Weerstation
Davis Vue ISS

Weerprogramma
Meteobridge

Weercomputer
Asus WL -330N3G

Webleverancier
Weerhuisje.nl

Davis Vue ISS

Meteobridge

Asus WL -330N3G

Weerhuisje.nl